sensor_id;sensor_type;location;lat;lon;timestamp;P1;durP1;ratioP1;P2;durP2;ratioP2
40541;SDS011;49288;52.194;5.676;2023-05-10T00:01:19;20.38;;;10.35;;
40541;SDS011;49288;52.194;5.676;2023-05-10T00:06:22;26.88;;;10.65;;
40541;SDS011;49288;52.194;5.676;2023-05-10T00:11:26;16.48;;;9.10;;
40541;SDS011;49288;52.194;5.676;2023-05-10T00:16:30;17.45;;;9.40;;
40541;SDS011;49288;52.194;5.676;2023-05-10T00:21:33;32.35;;;13.48;;
40541;SDS011;49288;52.194;5.676;2023-05-10T00:26:37;38.20;;;14.37;;
40541;SDS011;49288;52.194;5.676;2023-05-10T00:31:40;34.28;;;17.20;;
40541;SDS011;49288;52.194;5.676;2023-05-10T00:36:44;30.08;;;13.80;;
40541;SDS011;49288;52.194;5.676;2023-05-10T00:41:47;34.45;;;14.23;;
40541;SDS011;49288;52.194;5.676;2023-05-10T00:46:51;37.95;;;18.00;;
40541;SDS011;49288;52.194;5.676;2023-05-10T00:51:55;32.25;;;15.27;;
40541;SDS011;49288;52.194;5.676;2023-05-10T00:57:01;43.20;;;17.27;;
40541;SDS011;49288;52.194;5.676;2023-05-10T01:02:05;33.45;;;14.65;;
40541;SDS011;49288;52.194;5.676;2023-05-10T01:07:08;35.50;;;15.40;;
40541;SDS011;49288;52.194;5.676;2023-05-10T01:12:12;30.90;;;12.53;;
40541;SDS011;49288;52.194;5.676;2023-05-10T01:17:15;26.98;;;11.10;;
40541;SDS011;49288;52.194;5.676;2023-05-10T01:27:47;57.10;;;22.15;;
40541;SDS011;49288;52.194;5.676;2023-05-10T01:43:43;81.40;;;28.10;;
40541;SDS011;49288;52.194;5.676;2023-05-10T01:48:51;83.85;;;26.88;;
40541;SDS011;49288;52.194;5.676;2023-05-10T01:54:00;72.72;;;24.33;;
40541;SDS011;49288;52.194;5.676;2023-05-10T01:59:23;82.60;;;29.27;;
40541;SDS011;49288;52.194;5.676;2023-05-10T02:04:32;96.70;;;31.95;;
40541;SDS011;49288;52.194;5.676;2023-05-10T02:09:37;89.63;;;31.20;;
40541;SDS011;49288;52.194;5.676;2023-05-10T02:14:40;60.53;;;21.60;;
40541;SDS011;49288;52.194;5.676;2023-05-10T02:19:44;96.97;;;32.20;;
40541;SDS011;49288;52.194;5.676;2023-05-10T02:24:47;94.65;;;33.08;;
40541;SDS011;49288;52.194;5.676;2023-05-10T02:29:52;97.85;;;33.83;;
40541;SDS011;49288;52.194;5.676;2023-05-10T02:34:56;87.65;;;30.70;;
40541;SDS011;49288;52.194;5.676;2023-05-10T02:39:59;92.57;;;32.47;;
40541;SDS011;49288;52.194;5.676;2023-05-10T02:45:05;80.07;;;27.10;;
40541;SDS011;49288;52.194;5.676;2023-05-10T02:50:23;73.13;;;24.08;;
40541;SDS011;49288;52.194;5.676;2023-05-10T02:55:35;81.95;;;28.08;;
40541;SDS011;49288;52.194;5.676;2023-05-10T03:00:40;98.97;;;32.97;;
40541;SDS011;49288;52.194;5.676;2023-05-10T03:05:42;92.32;;;32.13;;
40541;SDS011;49288;52.194;5.676;2023-05-10T03:11:01;81.95;;;27.85;;
40541;SDS011;49288;52.194;5.676;2023-05-10T03:16:29;68.75;;;25.15;;
40541;SDS011;49288;52.194;5.676;2023-05-10T03:21:35;77.82;;;25.83;;
40541;SDS011;49288;52.194;5.676;2023-05-10T03:26:43;83.57;;;27.92;;
40541;SDS011;49288;52.194;5.676;2023-05-10T03:31:51;67.95;;;24.13;;
40541;SDS011;49288;52.194;5.676;2023-05-10T03:36:55;92.00;;;28.73;;
40541;SDS011;49288;52.194;5.676;2023-05-10T03:47:02;85.60;;;29.40;;
40541;SDS011;49288;52.194;5.676;2023-05-10T03:52:06;113.25;;;35.75;;
40541;SDS011;49288;52.194;5.676;2023-05-10T03:57:09;110.00;;;35.13;;
40541;SDS011;49288;52.194;5.676;2023-05-10T04:02:13;86.65;;;27.88;;
40541;SDS011;49288;52.194;5.676;2023-05-10T04:07:16;93.03;;;29.00;;
40541;SDS011;49288;52.194;5.676;2023-05-10T04:12:20;81.43;;;24.75;;
40541;SDS011;49288;52.194;5.676;2023-05-10T04:17:22;110.18;;;33.30;;
40541;SDS011;49288;52.194;5.676;2023-05-10T04:22:25;105.85;;;28.20;;
40541;SDS011;49288;52.194;5.676;2023-05-10T04:27:29;103.65;;;28.20;;
40541;SDS011;49288;52.194;5.676;2023-05-10T04:32:33;114.00;;;30.80;;
40541;SDS011;49288;52.194;5.676;2023-05-10T04:37:35;88.15;;;24.83;;
40541;SDS011;49288;52.194;5.676;2023-05-10T04:42:39;117.03;;;30.83;;
40541;SDS011;49288;52.194;5.676;2023-05-10T04:47:43;105.88;;;25.38;;
40541;SDS011;49288;52.194;5.676;2023-05-10T04:52:46;124.63;;;31.38;;
40541;SDS011;49288;52.194;5.676;2023-05-10T04:57:48;104.68;;;28.85;;
40541;SDS011;49288;52.194;5.676;2023-05-10T05:02:51;127.53;;;33.67;;
40541;SDS011;49288;52.194;5.676;2023-05-10T05:07:54;128.70;;;32.80;;
40541;SDS011;49288;52.194;5.676;2023-05-10T05:12:57;132.90;;;32.10;;
40541;SDS011;49288;52.194;5.676;2023-05-10T05:18:00;115.32;;;29.98;;
40541;SDS011;49288;52.194;5.676;2023-05-10T05:23:03;143.32;;;35.83;;
40541;SDS011;49288;52.194;5.676;2023-05-10T05:28:06;141.63;;;35.83;;
40541;SDS011;49288;52.194;5.676;2023-05-10T05:33:10;144.40;;;34.67;;
40541;SDS011;49288;52.194;5.676;2023-05-10T05:38:14;110.78;;;29.45;;
40541;SDS011;49288;52.194;5.676;2023-05-10T05:43:19;102.03;;;26.73;;
40541;SDS011;49288;52.194;5.676;2023-05-10T05:48:22;117.07;;;31.52;;
40541;SDS011;49288;52.194;5.676;2023-05-10T05:53:25;108.90;;;31.05;;
40541;SDS011;49288;52.194;5.676;2023-05-10T05:58:28;157.15;;;38.08;;
40541;SDS011;49288;52.194;5.676;2023-05-10T06:03:32;134.30;;;35.17;;
40541;SDS011;49288;52.194;5.676;2023-05-10T06:08:35;127.80;;;36.22;;
40541;SDS011;49288;52.194;5.676;2023-05-10T06:13:38;148.32;;;41.25;;
40541;SDS011;49288;52.194;5.676;2023-05-10T06:18:42;85.55;;;26.92;;
40541;SDS011;49288;52.194;5.676;2023-05-10T06:23:45;136.13;;;38.45;;
40541;SDS011;49288;52.194;5.676;2023-05-10T06:28:48;143.18;;;39.58;;
40541;SDS011;49288;52.194;5.676;2023-05-10T06:33:51;105.97;;;31.20;;
40541;SDS011;49288;52.194;5.676;2023-05-10T06:38:57;135.75;;;38.08;;
40541;SDS011;49288;52.194;5.676;2023-05-10T06:43:59;131.98;;;36.65;;
40541;SDS011;49288;52.194;5.676;2023-05-10T06:49:02;124.72;;;34.45;;
40541;SDS011;49288;52.194;5.676;2023-05-10T06:54:05;112.88;;;31.13;;
40541;SDS011;49288;52.194;5.676;2023-05-10T06:59:09;109.38;;;31.60;;
40541;SDS011;49288;52.194;5.676;2023-05-10T07:04:11;133.27;;;36.30;;
40541;SDS011;49288;52.194;5.676;2023-05-10T07:09:15;120.38;;;35.22;;
40541;SDS011;49288;52.194;5.676;2023-05-10T07:14:17;113.30;;;32.90;;
40541;SDS011;49288;52.194;5.676;2023-05-10T07:19:22;95.07;;;29.23;;
40541;SDS011;49288;52.194;5.676;2023-05-10T07:24:25;116.53;;;34.90;;
40541;SDS011;49288;52.194;5.676;2023-05-10T07:29:28;96.95;;;30.55;;
40541;SDS011;49288;52.194;5.676;2023-05-10T07:34:31;74.13;;;25.80;;
40541;SDS011;49288;52.194;5.676;2023-05-10T07:39:34;68.43;;;24.35;;
40541;SDS011;49288;52.194;5.676;2023-05-10T07:44:37;73.07;;;27.40;;
40541;SDS011;49288;52.194;5.676;2023-05-10T07:49:40;69.72;;;26.85;;
40541;SDS011;49288;52.194;5.676;2023-05-10T07:54:42;45.13;;;17.90;;
40541;SDS011;49288;52.194;5.676;2023-05-10T08:00:05;78.93;;;27.10;;
40541;SDS011;49288;52.194;5.676;2023-05-10T08:05:15;63.22;;;24.88;;
40541;SDS011;49288;52.194;5.676;2023-05-10T08:10:18;62.97;;;22.83;;
40541;SDS011;49288;52.194;5.676;2023-05-10T08:15:21;53.83;;;21.85;;
40541;SDS011;49288;52.194;5.676;2023-05-10T08:20:24;58.05;;;19.70;;
40541;SDS011;49288;52.194;5.676;2023-05-10T08:25:27;55.83;;;20.60;;
40541;SDS011;49288;52.194;5.676;2023-05-10T08:30:29;51.95;;;18.50;;
40541;SDS011;49288;52.194;5.676;2023-05-10T08:35:34;48.45;;;17.25;;
40541;SDS011;49288;52.194;5.676;2023-05-10T08:40:38;36.97;;;15.43;;
40541;SDS011;49288;52.194;5.676;2023-05-10T08:45:44;40.28;;;17.38;;
40541;SDS011;49288;52.194;5.676;2023-05-10T08:50:50;37.53;;;15.85;;
40541;SDS011;49288;52.194;5.676;2023-05-10T08:55:54;41.30;;;16.70;;
40541;SDS011;49288;52.194;5.676;2023-05-10T09:00:58;34.28;;;14.98;;
40541;SDS011;49288;52.194;5.676;2023-05-10T09:06:01;38.53;;;16.70;;
40541;SDS011;49288;52.194;5.676;2023-05-10T09:11:05;33.92;;;14.35;;
40541;SDS011;49288;52.194;5.676;2023-05-10T09:16:08;32.55;;;13.75;;
40541;SDS011;49288;52.194;5.676;2023-05-10T09:21:23;29.52;;;14.55;;
40541;SDS011;49288;52.194;5.676;2023-05-10T09:26:25;35.03;;;15.05;;
40541;SDS011;49288;52.194;5.676;2023-05-10T09:31:48;30.98;;;14.05;;
40541;SDS011;49288;52.194;5.676;2023-05-10T09:36:59;26.35;;;11.73;;
40541;SDS011;49288;52.194;5.676;2023-05-10T09:42:06;30.30;;;13.13;;
40541;SDS011;49288;52.194;5.676;2023-05-10T09:47:10;31.08;;;13.88;;
40541;SDS011;49288;52.194;5.676;2023-05-10T09:52:20;28.05;;;13.63;;
40541;SDS011;49288;52.194;5.676;2023-05-10T09:57:24;29.20;;;12.65;;
40541;SDS011;49288;52.194;5.676;2023-05-10T10:02:28;20.58;;;10.98;;
40541;SDS011;49288;52.194;5.676;2023-05-10T10:07:31;19.17;;;10.38;;
40541;SDS011;49288;52.194;5.676;2023-05-10T10:12:35;20.13;;;10.30;;
40541;SDS011;49288;52.194;5.676;2023-05-10T10:17:38;18.27;;;10.02;;
40541;SDS011;49288;52.194;5.676;2023-05-10T10:22:41;19.27;;;10.20;;
40541;SDS011;49288;52.194;5.676;2023-05-10T10:38:54;13.25;;;7.07;;
40541;SDS011;49288;52.194;5.676;2023-05-10T10:49:27;17.30;;;7.32;;
40541;SDS011;49288;52.194;5.676;2023-05-10T10:54:29;14.25;;;6.95;;
40541;SDS011;49288;52.194;5.676;2023-05-10T10:59:33;14.82;;;6.82;;
40541;SDS011;49288;52.194;5.676;2023-05-10T11:04:43;15.88;;;7.57;;
40541;SDS011;49288;52.194;5.676;2023-05-10T11:09:48;13.35;;;7.55;;
40541;SDS011;49288;52.194;5.676;2023-05-10T11:14:51;13.52;;;7.32;;
40541;SDS011;49288;52.194;5.676;2023-05-10T11:20:10;15.75;;;7.53;;
40541;SDS011;49288;52.194;5.676;2023-05-10T11:25:13;15.95;;;7.35;;
40541;SDS011;49288;52.194;5.676;2023-05-10T11:30:21;13.70;;;7.30;;
40541;SDS011;49288;52.194;5.676;2023-05-10T11:35:23;11.55;;;7.10;;
40541;SDS011;49288;52.194;5.676;2023-05-10T11:40:26;11.30;;;6.68;;
40541;SDS011;49288;52.194;5.676;2023-05-10T11:45:33;11.77;;;7.07;;
40541;SDS011;49288;52.194;5.676;2023-05-10T11:50:36;14.32;;;8.18;;
40541;SDS011;49288;52.194;5.676;2023-05-10T11:55:38;17.67;;;8.50;;
40541;SDS011;49288;52.194;5.676;2023-05-10T12:00:41;14.05;;;7.95;;
40541;SDS011;49288;52.194;5.676;2023-05-10T12:05:46;15.15;;;8.52;;
40541;SDS011;49288;52.194;5.676;2023-05-10T12:10:49;15.20;;;7.93;;
40541;SDS011;49288;52.194;5.676;2023-05-10T12:15:52;20.48;;;9.93;;
40541;SDS011;49288;52.194;5.676;2023-05-10T12:20:55;17.42;;;9.45;;
40541;SDS011;49288;52.194;5.676;2023-05-10T12:26:05;16.10;;;8.00;;
40541;SDS011;49288;52.194;5.676;2023-05-10T12:31:08;14.33;;;8.13;;
40541;SDS011;49288;52.194;5.676;2023-05-10T12:36:13;16.92;;;8.57;;
40541;SDS011;49288;52.194;5.676;2023-05-10T12:41:17;19.67;;;9.77;;
40541;SDS011;49288;52.194;5.676;2023-05-10T12:46:20;17.20;;;9.00;;
40541;SDS011;49288;52.194;5.676;2023-05-10T12:51:23;13.30;;;7.93;;
40541;SDS011;49288;52.194;5.676;2023-05-10T12:56:28;12.68;;;6.88;;
40541;SDS011;49288;52.194;5.676;2023-05-10T13:01:31;19.60;;;9.05;;
40541;SDS011;49288;52.194;5.676;2023-05-10T13:06:33;14.23;;;7.85;;
40541;SDS011;49288;52.194;5.676;2023-05-10T13:11:37;15.40;;;7.73;;
40541;SDS011;49288;52.194;5.676;2023-05-10T13:16:39;15.98;;;8.35;;
40541;SDS011;49288;52.194;5.676;2023-05-10T13:21:42;13.50;;;7.57;;
40541;SDS011;49288;52.194;5.676;2023-05-10T13:26:46;12.60;;;6.63;;
40541;SDS011;49288;52.194;5.676;2023-05-10T13:31:49;16.73;;;6.90;;
40541;SDS011;49288;52.194;5.676;2023-05-10T13:36:52;18.37;;;7.90;;
40541;SDS011;49288;52.194;5.676;2023-05-10T13:41:55;15.75;;;6.00;;
40541;SDS011;49288;52.194;5.676;2023-05-10T13:46:58;11.27;;;5.88;;
40541;SDS011;49288;52.194;5.676;2023-05-10T13:52:01;12.52;;;6.30;;
40541;SDS011;49288;52.194;5.676;2023-05-10T13:57:08;17.42;;;5.90;;
40541;SDS011;49288;52.194;5.676;2023-05-10T14:02:13;8.98;;;4.95;;
40541;SDS011;49288;52.194;5.676;2023-05-10T14:07:16;13.18;;;5.38;;
40541;SDS011;49288;52.194;5.676;2023-05-10T14:12:19;13.05;;;5.28;;
40541;SDS011;49288;52.194;5.676;2023-05-10T14:17:24;9.40;;;5.25;;
40541;SDS011;49288;52.194;5.676;2023-05-10T14:22:27;8.32;;;4.20;;
40541;SDS011;49288;52.194;5.676;2023-05-10T14:27:30;9.80;;;4.03;;
40541;SDS011;49288;52.194;5.676;2023-05-10T14:32:33;16.77;;;7.78;;
40541;SDS011;49288;52.194;5.676;2023-05-10T14:37:36;17.40;;;8.23;;
40541;SDS011;49288;52.194;5.676;2023-05-10T14:42:39;17.90;;;8.77;;
40541;SDS011;49288;52.194;5.676;2023-05-10T14:47:42;18.75;;;9.15;;
40541;SDS011;49288;52.194;5.676;2023-05-10T14:52:48;19.55;;;9.00;;
40541;SDS011;49288;52.194;5.676;2023-05-10T14:57:51;14.70;;;8.00;;
40541;SDS011;49288;52.194;5.676;2023-05-10T15:02:56;10.55;;;6.22;;
40541;SDS011;49288;52.194;5.676;2023-05-10T15:13:22;13.27;;;7.97;;
40541;SDS011;49288;52.194;5.676;2023-05-10T15:18:24;16.50;;;8.70;;
40541;SDS011;49288;52.194;5.676;2023-05-10T15:23:27;16.70;;;7.30;;
40541;SDS011;49288;52.194;5.676;2023-05-10T15:33:36;16.80;;;7.32;;
40541;SDS011;49288;52.194;5.676;2023-05-10T15:43:44;15.57;;;8.40;;
40541;SDS011;49288;52.194;5.676;2023-05-10T15:48:48;17.90;;;8.18;;
40541;SDS011;49288;52.194;5.676;2023-05-10T15:53:50;22.52;;;10.40;;
40541;SDS011;49288;52.194;5.676;2023-05-10T15:59:07;19.48;;;9.90;;
40541;SDS011;49288;52.194;5.676;2023-05-10T16:04:14;30.60;;;12.13;;
40541;SDS011;49288;52.194;5.676;2023-05-10T16:09:17;24.17;;;11.40;;
40541;SDS011;49288;52.194;5.676;2023-05-10T16:14:22;26.48;;;12.30;;
40541;SDS011;49288;52.194;5.676;2023-05-10T16:19:27;22.38;;;11.00;;
40541;SDS011;49288;52.194;5.676;2023-05-10T16:24:32;21.25;;;9.65;;
40541;SDS011;49288;52.194;5.676;2023-05-10T16:29:35;19.83;;;9.38;;
40541;SDS011;49288;52.194;5.676;2023-05-10T16:34:39;23.00;;;12.05;;
40541;SDS011;49288;52.194;5.676;2023-05-10T16:39:42;25.52;;;11.10;;
40541;SDS011;49288;52.194;5.676;2023-05-10T16:44:47;22.73;;;11.60;;
40541;SDS011;49288;52.194;5.676;2023-05-10T16:49:51;21.00;;;10.85;;
40541;SDS011;49288;52.194;5.676;2023-05-10T16:54:54;26.60;;;12.07;;
40541;SDS011;49288;52.194;5.676;2023-05-10T16:59:58;22.40;;;9.55;;
40541;SDS011;49288;52.194;5.676;2023-05-10T17:05:00;20.67;;;10.98;;
40541;SDS011;49288;52.194;5.676;2023-05-10T17:10:04;21.52;;;10.07;;
40541;SDS011;49288;52.194;5.676;2023-05-10T17:15:08;18.98;;;9.40;;
40541;SDS011;49288;52.194;5.676;2023-05-10T17:20:11;21.17;;;9.65;;
40541;SDS011;49288;52.194;5.676;2023-05-10T17:25:14;17.98;;;9.30;;
40541;SDS011;49288;52.194;5.676;2023-05-10T17:30:18;22.00;;;11.67;;
40541;SDS011;49288;52.194;5.676;2023-05-10T17:35:26;21.85;;;11.57;;
40541;SDS011;49288;52.194;5.676;2023-05-10T17:40:31;21.27;;;10.82;;
40541;SDS011;49288;52.194;5.676;2023-05-10T17:45:34;20.50;;;9.40;;
40541;SDS011;49288;52.194;5.676;2023-05-10T17:50:40;23.02;;;10.38;;
40541;SDS011;49288;52.194;5.676;2023-05-10T17:55:44;23.80;;;12.20;;
40541;SDS011;49288;52.194;5.676;2023-05-10T18:00:48;22.17;;;10.00;;
40541;SDS011;49288;52.194;5.676;2023-05-10T18:05:52;28.88;;;13.25;;
40541;SDS011;49288;52.194;5.676;2023-05-10T18:10:56;20.45;;;11.35;;
40541;SDS011;49288;52.194;5.676;2023-05-10T18:15:59;16.52;;;9.90;;
40541;SDS011;49288;52.194;5.676;2023-05-10T18:21:02;18.90;;;10.43;;
40541;SDS011;49288;52.194;5.676;2023-05-10T18:26:06;27.58;;;13.52;;
40541;SDS011;49288;52.194;5.676;2023-05-10T18:31:09;22.90;;;11.25;;
40541;SDS011;49288;52.194;5.676;2023-05-10T18:36:15;22.25;;;10.98;;
40541;SDS011;49288;52.194;5.676;2023-05-10T18:41:18;26.20;;;14.73;;
40541;SDS011;49288;52.194;5.676;2023-05-10T18:46:22;22.85;;;10.90;;
40541;SDS011;49288;52.194;5.676;2023-05-10T18:51:25;18.95;;;10.30;;
40541;SDS011;49288;52.194;5.676;2023-05-10T18:56:30;22.48;;;10.07;;
40541;SDS011;49288;52.194;5.676;2023-05-10T19:01:33;23.17;;;10.20;;
40541;SDS011;49288;52.194;5.676;2023-05-10T19:06:39;17.73;;;9.40;;
40541;SDS011;49288;52.194;5.676;2023-05-10T19:11:43;20.02;;;10.25;;
40541;SDS011;49288;52.194;5.676;2023-05-10T19:16:45;23.27;;;10.10;;
40541;SDS011;49288;52.194;5.676;2023-05-10T19:21:49;20.30;;;9.80;;
40541;SDS011;49288;52.194;5.676;2023-05-10T19:26:52;22.73;;;9.77;;
40541;SDS011;49288;52.194;5.676;2023-05-10T19:31:57;16.77;;;8.80;;
40541;SDS011;49288;52.194;5.676;2023-05-10T19:37:00;18.13;;;9.73;;
40541;SDS011;49288;52.194;5.676;2023-05-10T19:42:02;22.17;;;9.88;;
40541;SDS011;49288;52.194;5.676;2023-05-10T19:47:06;20.83;;;11.13;;
40541;SDS011;49288;52.194;5.676;2023-05-10T19:52:10;22.73;;;10.43;;
40541;SDS011;49288;52.194;5.676;2023-05-10T19:57:13;20.43;;;10.07;;
40541;SDS011;49288;52.194;5.676;2023-05-10T20:02:16;25.33;;;13.60;;
40541;SDS011;49288;52.194;5.676;2023-05-10T20:07:20;26.58;;;14.43;;
40541;SDS011;49288;52.194;5.676;2023-05-10T20:12:25;19.17;;;10.43;;
40541;SDS011;49288;52.194;5.676;2023-05-10T20:17:28;27.25;;;14.95;;
40541;SDS011;49288;52.194;5.676;2023-05-10T20:22:31;24.17;;;11.80;;
40541;SDS011;49288;52.194;5.676;2023-05-10T20:27:33;25.70;;;13.20;;
40541;SDS011;49288;52.194;5.676;2023-05-10T20:32:36;23.70;;;11.20;;
40541;SDS011;49288;52.194;5.676;2023-05-10T20:37:39;31.20;;;13.85;;
40541;SDS011;49288;52.194;5.676;2023-05-10T20:42:43;24.85;;;11.05;;
40541;SDS011;49288;52.194;5.676;2023-05-10T20:47:48;21.73;;;10.38;;
40541;SDS011;49288;52.194;5.676;2023-05-10T20:52:51;32.20;;;15.77;;
40541;SDS011;49288;52.194;5.676;2023-05-10T20:57:54;25.60;;;13.40;;
40541;SDS011;49288;52.194;5.676;2023-05-10T21:02:57;25.70;;;12.20;;
40541;SDS011;49288;52.194;5.676;2023-05-10T21:08:00;22.35;;;11.48;;
40541;SDS011;49288;52.194;5.676;2023-05-10T21:13:03;21.00;;;9.73;;
40541;SDS011;49288;52.194;5.676;2023-05-10T21:18:06;24.65;;;12.85;;
40541;SDS011;49288;52.194;5.676;2023-05-10T21:23:08;24.17;;;13.10;;
40541;SDS011;49288;52.194;5.676;2023-05-10T21:28:11;30.83;;;14.48;;
40541;SDS011;49288;52.194;5.676;2023-05-10T21:33:14;22.67;;;11.90;;
40541;SDS011;49288;52.194;5.676;2023-05-10T21:38:23;21.42;;;12.15;;
40541;SDS011;49288;52.194;5.676;2023-05-10T21:43:26;23.50;;;12.60;;
40541;SDS011;49288;52.194;5.676;2023-05-10T21:48:29;33.57;;;15.53;;
40541;SDS011;49288;52.194;5.676;2023-05-10T21:53:32;29.05;;;14.07;;
40541;SDS011;49288;52.194;5.676;2023-05-10T21:58:37;30.10;;;15.13;;
40541;SDS011;49288;52.194;5.676;2023-05-10T22:03:41;41.72;;;17.77;;
40541;SDS011;49288;52.194;5.676;2023-05-10T22:08:44;39.47;;;18.48;;
40541;SDS011;49288;52.194;5.676;2023-05-10T22:13:47;30.92;;;14.48;;
40541;SDS011;49288;52.194;5.676;2023-05-10T22:18:50;35.17;;;17.08;;
40541;SDS011;49288;52.194;5.676;2023-05-10T22:28:57;43.00;;;15.90;;
40541;SDS011;49288;52.194;5.676;2023-05-10T22:34:00;41.40;;;18.27;;
40541;SDS011;49288;52.194;5.676;2023-05-10T22:39:03;43.95;;;18.77;;
40541;SDS011;49288;52.194;5.676;2023-05-10T22:44:09;44.75;;;19.67;;
40541;SDS011;49288;52.194;5.676;2023-05-10T22:54:15;29.05;;;13.73;;
40541;SDS011;49288;52.194;5.676;2023-05-10T22:59:18;27.98;;;12.52;;
40541;SDS011;49288;52.194;5.676;2023-05-10T23:04:21;30.67;;;14.85;;
40541;SDS011;49288;52.194;5.676;2023-05-10T23:09:24;30.05;;;14.27;;
40541;SDS011;49288;52.194;5.676;2023-05-10T23:14:26;31.73;;;14.57;;
40541;SDS011;49288;52.194;5.676;2023-05-10T23:19:30;41.17;;;17.83;;
40541;SDS011;49288;52.194;5.676;2023-05-10T23:24:34;27.73;;;13.32;;
40541;SDS011;49288;52.194;5.676;2023-05-10T23:29:37;28.10;;;12.65;;
40541;SDS011;49288;52.194;5.676;2023-05-10T23:34:41;25.45;;;11.25;;
40541;SDS011;49288;52.194;5.676;2023-05-10T23:39:43;25.02;;;10.85;;
40541;SDS011;49288;52.194;5.676;2023-05-10T23:44:46;24.73;;;12.38;;
40541;SDS011;49288;52.194;5.676;2023-05-10T23:49:49;26.48;;;11.73;;
40541;SDS011;49288;52.194;5.676;2023-05-10T23:54:53;18.70;;;9.48;;
40541;SDS011;49288;52.194;5.676;2023-05-10T23:59:56;29.27;;;13.95;;
